Fort Polk, LA

12:59 PM CDT on May 24, 2017 (GMT -0500)
Fort Polk | | Change Station

Elev 308 ft 31.02 °N, 92.91 °W | Updated 5 minutes ago

Partly Cloudy
Partly Cloudy
74 °F
Feels Like 74 °F
N
8
Wind Variable Wind from West
Gusts 16 mph

Today
High -- | Low -- °F
--% Chance of Precip.
Yesterday
High -- | Low -- °F
Precip. -- in
Pressure 29.80 in
Visibility 10.0 miles
Clouds Scattered Clouds 6000 ft
Dew Point 49 °F
Humidity 41%
Rainfall 0.00 in
Snow Depth Not available.
6:11 AM 8:06 PM
Waning Crescent, 2% visible
METAR KBKB 241754Z AUTO 27007G14KT 170V340 10SM SCT060 23/09 A2973 RMK AO2 SLP091 T02330094 10239 20150 58009
Pressure 29.80 in
Visibility 10.0 miles
Clouds Scattered Clouds 6000 ft
Dew Point 49 °F
Humidity 41%
Rainfall 0.00 in
Snow Depth Not available.
6:11 AM 8:06 PM
Waning Crescent, 2% visible
METAR KBKB 241754Z AUTO 27007G14KT 170V340 10SM SCT060 23/09 A2973 RMK AO2 SLP091 T02330094 10239 20150 58009

Get Severe Weather Alerts

Thanks for signing up!

Be on the lookout for a verification email in your inbox.

You'll start receiving the daily forecast at 6 AM.

×

10-Day Weather Forecast

Almanac

Astronomy

May. 24, 2017 Rise Set
Actual Time
Civil Twilight
Nautical Twilight
Astronomical Twilight
Moon
Length of Visible Light
Length of Day
Tomorrow will be .
, % of the Moon is Illuminated

Today's Extremes

State Highs State Lows

Community

WunderPhotos

Category 6

Welcome to Category 6. This is the collective home for Weather Underground's featured writeups by Dr. Jeff Masters (right), Bob Henson (left), Chris Burt, and other regular contributors.

Nearby

Air Quality

  Air Quality AQ Index Pollutant
Not available.

Snow Depth

Station Depth Elevation

Earthquake Activity

City Distance Mag. Time & Date
Minimum magnitude displayed is 2.5.

Coastal Water Temperatures

Place Temperature

Stations

Nearby Weather Stations

Station Location Temp. Windchill Dew Point Humidity Wind Precip. Elev Updated Type
                   

Watches & Warnings

There are currently no watches in effect.